createdAt,value
2022-10-15T00:01:16.872Z,26.72
2022-10-15T00:03:44.921Z,26.71
2022-10-15T00:06:14.528Z,26.96
2022-10-15T00:08:41.442Z,26.96
2022-10-15T00:11:14.509Z,26.44
2022-10-15T00:13:41.775Z,26.55
2022-10-15T00:16:13.074Z,27.01
2022-10-15T00:18:40.858Z,27.25
2022-10-15T00:21:09.031Z,27.30
2022-10-15T00:23:36.419Z,26.83
2022-10-15T00:26:05.870Z,27.23
2022-10-15T00:28:34.435Z,27.33
2022-10-15T00:33:31.437Z,26.68
2022-10-15T00:36:03.037Z,26.98
2022-10-15T00:38:30.249Z,26.84
2022-10-15T00:40:57.754Z,26.64
2022-10-15T00:43:47.743Z,26.26
2022-10-15T00:46:19.918Z,26.13
2022-10-15T00:48:49.715Z,25.73
2022-10-15T00:51:19.218Z,26.38
2022-10-15T00:53:47.122Z,26.56
2022-10-15T00:56:16.552Z,26.53
2022-10-15T00:58:43.851Z,26.61
2022-10-15T01:01:10.636Z,27.03
2022-10-15T01:03:37.595Z,26.84
2022-10-15T01:06:04.651Z,26.85
2022-10-15T01:08:33.934Z,26.98
2022-10-15T01:11:17.580Z,26.73
2022-10-15T01:13:52.913Z,26.92
2022-10-15T01:16:33.119Z,26.69
2022-10-15T01:19:24.871Z,27.02
2022-10-15T01:22:01.928Z,26.94
2022-10-15T01:24:34.600Z,26.61
2022-10-15T01:27:22.416Z,26.89
2022-10-15T01:30:00.500Z,26.44
2022-10-15T01:32:29.830Z,26.67
2022-10-15T01:35:00.267Z,26.43
2022-10-15T01:37:41.066Z,26.51
2022-10-15T01:40:23.986Z,26.30
2022-10-15T01:42:57.142Z,26.21
2022-10-15T01:45:57.275Z,26.28
2022-10-15T01:48:41.023Z,26.33
2022-10-15T01:51:10.197Z,25.86
2022-10-15T01:53:40.218Z,26.23
2022-10-15T01:56:12.120Z,26.18
2022-10-15T01:58:42.080Z,26.22
2022-10-15T02:01:09.721Z,26.05
2022-10-15T02:03:51.537Z,25.94
2022-10-15T02:06:28.781Z,26.02
2022-10-15T02:09:04.424Z,26.23
2022-10-15T02:11:42.816Z,26.55
2022-10-15T02:14:16.096Z,25.36
2022-10-15T02:16:52.193Z,26.07
2022-10-15T02:19:25.836Z,26.31
2022-10-15T02:22:01.345Z,26.25
2022-10-15T02:24:39.539Z,26.24
2022-10-15T02:27:08.513Z,26.42
2022-10-15T02:29:38.766Z,25.92
2022-10-15T02:32:07.412Z,25.81
2022-10-15T02:34:35.664Z,26.02
2022-10-15T02:37:04.524Z,26.29
2022-10-15T02:39:33.956Z,26.25
2022-10-15T02:42:01.669Z,26.38
2022-10-15T02:44:28.605Z,26.04
2022-10-15T02:46:58.078Z,26.24
2022-10-15T02:49:24.693Z,26.74
2022-10-15T02:51:51.349Z,26.55
2022-10-15T02:54:17.981Z,25.84
2022-10-15T02:56:47.156Z,25.80
2022-10-15T02:59:14.587Z,25.54
2022-10-15T03:01:41.522Z,24.95
2022-10-15T03:04:09.305Z,25.06
2022-10-15T03:06:36.563Z,25.61
2022-10-15T03:09:04.154Z,25.88
2022-10-15T03:11:32.140Z,25.75
2022-10-15T03:13:58.786Z,25.57
2022-10-15T03:16:25.327Z,25.99
2022-10-15T03:18:52.829Z,25.51
2022-10-15T03:21:19.358Z,26.12
2022-10-15T03:23:46.847Z,26.06
2022-10-15T03:26:18.763Z,26.25
2022-10-15T03:28:45.621Z,25.94
2022-10-15T03:31:19.171Z,26.11
2022-10-15T03:33:48.461Z,25.36
2022-10-15T03:36:16.853Z,25.25
2022-10-15T03:38:43.483Z,24.94
2022-10-15T03:41:13.394Z,25.65
2022-10-15T03:43:42.876Z,25.60
2022-10-15T03:46:10.429Z,25.81
2022-10-15T03:48:41.190Z,25.64
2022-10-15T03:51:09.618Z,25.69
2022-10-15T03:53:36.429Z,25.80
2022-10-15T03:56:06.788Z,25.56
2022-10-15T03:58:37.079Z,25.34
2022-10-15T04:01:13.546Z,25.69
2022-10-15T04:03:40.778Z,25.40
2022-10-15T04:06:08.413Z,25.82
2022-10-15T04:08:35.562Z,25.61
2022-10-15T04:11:16.492Z,25.75
2022-10-15T04:13:44.299Z,25.81
2022-10-15T04:16:11.204Z,25.84
2022-10-15T04:18:38.027Z,26.21
2022-10-15T04:21:04.670Z,26.20
2022-10-15T04:23:32.345Z,26.01
2022-10-15T04:26:17.655Z,25.76
2022-10-15T04:28:44.626Z,25.61
2022-10-15T04:31:11.929Z,25.87
2022-10-15T04:33:39.506Z,25.16
2022-10-15T04:36:13.468Z,25.19
2022-10-15T04:38:53.449Z,25.63
2022-10-15T04:41:46.095Z,25.96
2022-10-15T04:44:25.629Z,25.79
2022-10-15T04:46:55.849Z,25.78
2022-10-15T04:49:31.013Z,25.66
2022-10-15T04:51:57.645Z,25.81
2022-10-15T04:54:37.240Z,26.05
2022-10-15T04:57:05.570Z,25.81
2022-10-15T04:59:33.079Z,25.42
2022-10-15T05:02:18.279Z,25.59
2022-10-15T05:04:49.168Z,25.44
2022-10-15T05:07:16.227Z,24.96
2022-10-15T05:09:46.478Z,24.78
2022-10-15T05:12:13.285Z,25.33
2022-10-15T05:14:40.342Z,25.48
2022-10-15T05:17:16.626Z,25.53
2022-10-15T05:19:44.395Z,25.40
2022-10-15T05:22:17.839Z,24.95
2022-10-15T05:24:51.170Z,24.44
2022-10-15T05:27:37.366Z,24.75
2022-10-15T05:30:06.088Z,25.55
2022-10-15T05:32:54.473Z,24.86
2022-10-15T05:35:22.821Z,24.45
2022-10-15T05:37:54.735Z,24.94
2022-10-15T05:40:22.729Z,25.48
2022-10-15T05:43:02.719Z,25.43
2022-10-15T05:45:29.305Z,25.80
2022-10-15T05:48:01.781Z,25.72
2022-10-15T05:50:28.666Z,25.78
2022-10-15T05:52:56.643Z,26.07
2022-10-15T05:55:30.171Z,25.96
2022-10-15T05:58:01.353Z,26.06
2022-10-15T06:00:28.150Z,25.97
2022-10-15T06:02:54.792Z,26.03
2022-10-15T06:05:22.337Z,25.78
2022-10-15T06:07:48.894Z,26.22
2022-10-15T06:10:15.625Z,26.22
2022-10-15T06:12:42.738Z,25.73
2022-10-15T06:15:09.762Z,25.76
2022-10-15T06:17:37.422Z,25.43
2022-10-15T06:20:04.273Z,25.50
2022-10-15T06:22:31.268Z,25.64
2022-10-15T06:24:58.107Z,26.07
2022-10-15T06:27:25.373Z,26.42
2022-10-15T06:29:52.130Z,25.59
2022-10-15T06:32:18.649Z,25.07
2022-10-15T06:34:45.211Z,25.26
2022-10-15T06:37:11.787Z,25.31
2022-10-15T06:39:39.714Z,24.98
2022-10-15T06:42:06.277Z,25.42
2022-10-15T06:44:39.359Z,25.17
2022-10-15T06:47:06.212Z,24.72
2022-10-15T06:49:34.035Z,24.79
2022-10-15T06:52:03.530Z,24.33
2022-10-15T06:54:30.308Z,25.29
2022-10-15T06:56:56.816Z,25.39
2022-10-15T06:59:23.620Z,24.98
2022-10-15T07:01:50.382Z,25.19
2022-10-15T07:04:16.967Z,24.94
2022-10-15T07:06:43.767Z,25.13
2022-10-15T07:09:10.579Z,25.58
2022-10-15T07:11:37.510Z,25.56
2022-10-15T07:14:04.501Z,25.75
2022-10-15T07:16:31.323Z,25.50
2022-10-15T07:18:57.914Z,25.74
2022-10-15T07:21:24.726Z,26.38
2022-10-15T07:23:51.791Z,26.17
2022-10-15T07:26:18.383Z,26.63
2022-10-15T07:28:45.324Z,26.06
2022-10-15T07:31:12.038Z,26.29
2022-10-15T07:33:39.169Z,26.43
2022-10-15T07:36:09.314Z,26.87
2022-10-15T07:38:36.689Z,26.70
2022-10-15T07:41:04.602Z,27.09
2022-10-15T07:43:32.585Z,26.81
2022-10-15T07:45:59.100Z,26.14
2022-10-15T07:48:26.043Z,26.12
2022-10-15T07:51:00.262Z,26.04
2022-10-15T07:53:27.166Z,26.00
2022-10-15T07:56:04.608Z,25.71
2022-10-15T07:58:34.613Z,26.08
2022-10-15T08:01:02.539Z,26.38
2022-10-15T08:03:30.508Z,26.61
2022-10-15T08:06:00.117Z,26.50
2022-10-15T08:08:29.156Z,27.01
2022-10-15T08:10:55.919Z,26.80
2022-10-15T08:13:22.944Z,27.04
2022-10-15T08:15:50.641Z,27.49
2022-10-15T08:18:17.201Z,27.27
2022-10-15T08:20:43.798Z,27.03
2022-10-15T08:23:16.024Z,26.90
2022-10-15T08:25:42.793Z,27.41
2022-10-15T08:28:12.433Z,27.60
2022-10-15T08:30:38.973Z,27.61
2022-10-15T08:33:12.470Z,27.88
2022-10-15T08:35:43.588Z,27.31
2022-10-15T08:38:16.049Z,27.40
2022-10-15T08:40:55.798Z,27.41
2022-10-15T08:43:40.320Z,27.68
2022-10-15T08:46:19.654Z,27.45
2022-10-15T08:48:50.942Z,28.15
2022-10-15T08:51:21.413Z,28.75
2022-10-15T08:53:55.062Z,29.12
2022-10-15T08:56:27.214Z,29.28
2022-10-15T08:58:59.426Z,29.69
2022-10-15T09:01:44.872Z,29.61
2022-10-15T09:04:31.318Z,29.71
2022-10-15T09:07:13.470Z,29.50
2022-10-15T09:09:58.347Z,29.85
2022-10-15T09:13:16.818Z,29.78
2022-10-15T09:16:10.809Z,29.34
2022-10-15T09:18:38.706Z,29.42
2022-10-15T09:21:05.903Z,28.79
2022-10-15T09:23:33.700Z,28.48
2022-10-15T09:26:04.414Z,28.37
2022-10-15T09:28:43.410Z,28.43
2022-10-15T09:31:16.883Z,29.77
2022-10-15T09:33:50.487Z,30.50
2022-10-15T09:36:35.557Z,31.29
2022-10-15T09:39:31.087Z,31.50
2022-10-15T09:42:06.805Z,32.10
2022-10-15T09:44:39.841Z,33.24
2022-10-15T09:47:22.991Z,33.69
2022-10-15T09:49:49.513Z,34.38
2022-10-15T09:52:27.607Z,34.62
2022-10-15T09:55:02.657Z,34.57
2022-10-15T09:57:32.344Z,35.19
2022-10-15T10:00:03.902Z,33.94
2022-10-15T10:02:39.219Z,34.72
2022-10-15T10:05:32.205Z,33.90
2022-10-15T10:08:24.324Z,34.92
2022-10-15T10:10:55.496Z,35.22
2022-10-15T10:13:35.847Z,35.68
2022-10-15T10:16:08.865Z,35.54
2022-10-15T10:18:37.561Z,35.31
2022-10-15T10:21:07.022Z,35.46
2022-10-15T10:23:39.388Z,35.89
2022-10-15T10:26:09.109Z,35.74
2022-10-15T10:28:56.660Z,35.33
2022-10-15T10:31:33.430Z,34.19
2022-10-15T10:34:03.865Z,33.12
2022-10-15T10:36:34.365Z,32.88
2022-10-15T10:39:10.026Z,32.72
2022-10-15T10:42:00.418Z,32.33
2022-10-15T10:44:36.032Z,31.71
2022-10-15T10:47:10.356Z,31.16
2022-10-15T10:49:39.965Z,30.74
2022-10-15T10:52:24.299Z,31.02
2022-10-15T10:55:17.589Z,30.79
2022-10-15T10:57:50.281Z,30.96
2022-10-15T11:00:52.702Z,31.30
2022-10-15T11:03:27.990Z,30.27
2022-10-15T11:06:19.456Z,30.37
2022-10-15T11:09:11.054Z,30.60
2022-10-15T11:11:52.892Z,30.84
2022-10-15T11:14:33.752Z,30.62
2022-10-15T11:17:07.705Z,31.44
2022-10-15T11:20:05.709Z,31.56
2022-10-15T11:22:49.406Z,31.98
2022-10-15T11:25:21.703Z,32.21
2022-10-15T11:28:10.464Z,31.01
2022-10-15T11:30:58.589Z,31.62
2022-10-15T11:33:41.782Z,31.07
2022-10-15T11:36:39.067Z,31.29
2022-10-15T11:39:41.243Z,32.06
2022-10-15T11:42:24.925Z,32.04
2022-10-15T11:45:18.491Z,31.46
2022-10-15T11:47:56.085Z,32.14
2022-10-15T11:50:32.343Z,31.94
2022-10-15T11:53:35.842Z,32.14
2022-10-15T11:56:26.645Z,31.69
2022-10-15T11:59:03.155Z,31.03
2022-10-15T12:01:37.314Z,31.32
2022-10-15T12:04:19.102Z,30.94
2022-10-15T12:06:51.448Z,30.81
2022-10-15T12:09:40.970Z,30.70
2022-10-15T12:12:39.701Z,30.12
2022-10-15T12:15:21.673Z,30.77
2022-10-15T12:17:58.676Z,30.39
2022-10-15T12:20:27.038Z,30.12
2022-10-15T12:22:57.806Z,30.26
2022-10-15T12:25:41.775Z,30.63
2022-10-15T12:28:08.237Z,30.89
2022-10-15T12:30:37.571Z,30.46
2022-10-15T12:33:24.414Z,30.51
2022-10-15T12:35:57.218Z,30.41
2022-10-15T12:38:33.348Z,30.62
2022-10-15T12:41:08.079Z,30.40
2022-10-15T12:43:38.375Z,30.79
2022-10-15T12:46:07.583Z,30.61
2022-10-15T12:48:47.211Z,29.28
2022-10-15T12:51:16.711Z,29.92
2022-10-15T12:53:45.167Z,29.66
2022-10-15T12:56:11.869Z,30.66
2022-10-15T12:58:42.076Z,30.50
2022-10-15T13:01:14.438Z,30.83
2022-10-15T13:03:53.497Z,30.61
2022-10-15T13:06:19.971Z,31.17
2022-10-15T13:09:12.144Z,31.17
2022-10-15T13:14:39.910Z,31.60
2022-10-15T13:17:15.781Z,30.70
2022-10-15T13:20:04.481Z,30.00
2022-10-15T13:22:33.062Z,29.87
2022-10-15T13:25:00.021Z,29.82
2022-10-15T13:27:29.341Z,30.58
2022-10-15T13:30:02.109Z,30.38
2022-10-15T13:32:43.589Z,29.41
2022-10-15T13:35:13.395Z,28.79
2022-10-15T13:37:42.753Z,28.86
2022-10-15T13:40:22.945Z,29.53
2022-10-15T13:43:00.515Z,30.07
2022-10-15T13:45:27.605Z,30.19
2022-10-15T13:47:54.925Z,29.55
2022-10-15T13:50:27.753Z,29.77
2022-10-15T13:53:00.305Z,29.74
2022-10-15T13:55:29.054Z,30.46
2022-10-15T13:58:01.718Z,29.98
2022-10-15T14:00:32.411Z,30.10
2022-10-15T14:03:22.093Z,30.40
2022-10-15T14:05:51.024Z,30.06
2022-10-15T14:08:19.258Z,29.72
2022-10-15T14:10:46.936Z,29.60
2022-10-15T14:13:13.729Z,29.49
2022-10-15T14:15:41.333Z,29.75
2022-10-15T14:18:08.659Z,29.47
2022-10-15T14:20:35.221Z,29.75
2022-10-15T14:23:02.160Z,30.37
2022-10-15T14:25:28.755Z,30.45
2022-10-15T14:27:55.713Z,30.44
2022-10-15T14:30:30.557Z,30.11
2022-10-15T14:32:57.287Z,30.03
2022-10-15T14:35:25.447Z,29.84
2022-10-15T14:38:02.447Z,29.75
2022-10-15T14:40:29.348Z,30.86
2022-10-15T14:42:55.814Z,30.76
2022-10-15T14:45:31.686Z,30.74
2022-10-15T14:48:01.029Z,29.87
2022-10-15T14:50:33.717Z,29.52
2022-10-15T14:53:05.254Z,28.65
2022-10-15T14:55:38.148Z,29.15
2022-10-15T14:58:09.868Z,28.81
2022-10-15T15:00:43.050Z,29.04
2022-10-15T15:03:40.011Z,29.54
2022-10-15T15:06:07.576Z,28.15
2022-10-15T15:08:34.134Z,28.14
2022-10-15T15:11:03.909Z,28.65
2022-10-15T15:13:38.667Z,27.32
2022-10-15T15:16:05.549Z,27.72
2022-10-15T15:18:32.172Z,28.20
2022-10-15T15:21:03.122Z,28.72
2022-10-15T15:23:30.269Z,29.50
2022-10-15T15:25:57.043Z,29.83
2022-10-15T15:28:26.585Z,29.62
2022-10-15T15:30:58.663Z,29.99
2022-10-15T15:33:28.155Z,29.49
2022-10-15T15:36:05.280Z,30.20
2022-10-15T15:38:32.178Z,30.21
2022-10-15T15:41:13.070Z,30.75
2022-10-15T15:43:40.012Z,30.78
2022-10-15T15:46:07.195Z,30.73
2022-10-15T15:48:34.161Z,30.60
2022-10-15T15:51:07.381Z,30.41
2022-10-15T15:53:35.257Z,30.09
2022-10-15T15:56:01.868Z,30.06
2022-10-15T15:58:28.854Z,28.53
2022-10-15T16:00:55.381Z,28.45
2022-10-15T16:03:21.967Z,28.93
2022-10-15T16:08:21.476Z,29.00
2022-10-15T16:10:48.032Z,29.28
2022-10-15T16:13:14.682Z,29.26
2022-10-15T16:15:41.689Z,29.19
2022-10-15T16:18:09.177Z,29.07
2022-10-15T16:20:39.221Z,29.07
2022-10-15T16:23:05.898Z,29.15
2022-10-15T16:25:32.983Z,29.03
2022-10-15T16:28:02.037Z,29.13
2022-10-15T16:30:29.033Z,29.42
2022-10-15T16:32:55.848Z,29.10
2022-10-15T16:35:22.785Z,28.16
2022-10-15T16:37:52.461Z,28.37
2022-10-15T16:40:19.449Z,28.04
2022-10-15T16:42:46.193Z,28.50
2022-10-15T16:45:12.766Z,29.03
2022-10-15T16:47:39.374Z,29.06
2022-10-15T16:50:06.773Z,28.76
2022-10-15T16:52:34.145Z,28.90
2022-10-15T16:55:00.652Z,28.90
2022-10-15T16:57:27.222Z,28.82
2022-10-15T16:59:53.773Z,28.45
2022-10-15T17:02:20.297Z,28.05
2022-10-15T17:04:46.938Z,27.90
2022-10-15T17:07:13.462Z,28.35
2022-10-15T17:09:40.238Z,28.32
2022-10-15T17:12:06.879Z,28.64
2022-10-15T17:14:33.441Z,28.59
2022-10-15T17:17:00.459Z,28.85
2022-10-15T17:19:30.383Z,28.95
2022-10-15T17:21:59.857Z,29.28
2022-10-15T17:24:26.410Z,29.47
2022-10-15T17:26:54.659Z,29.39
2022-10-15T17:29:22.916Z,29.27
2022-10-15T17:31:50.774Z,28.84
2022-10-15T17:34:17.966Z,28.13
2022-10-15T17:36:47.282Z,28.59
2022-10-15T17:39:19.985Z,28.72
2022-10-15T17:41:47.563Z,28.21
2022-10-15T17:44:14.637Z,27.72
2022-10-15T17:46:41.887Z,27.53
2022-10-15T17:49:11.147Z,27.96
2022-10-15T17:51:39.375Z,27.75
2022-10-15T17:54:06.164Z,27.79
2022-10-15T17:56:34.691Z,27.62
2022-10-15T17:59:04.660Z,27.82
2022-10-15T18:01:56.230Z,28.38
2022-10-15T18:04:20.436Z,27.87
2022-10-15T18:06:46.971Z,28.15
2022-10-15T18:09:24.501Z,27.94
2022-10-15T18:11:55.555Z,27.73
2022-10-15T18:14:28.741Z,28.19
2022-10-15T18:16:55.720Z,27.90
2022-10-15T18:19:22.354Z,28.05
2022-10-15T18:21:49.675Z,28.76
2022-10-15T18:24:21.061Z,28.29
2022-10-15T18:26:48.854Z,28.54
2022-10-15T18:29:15.827Z,28.75
2022-10-15T18:31:43.459Z,28.30
2022-10-15T18:34:10.264Z,28.43
2022-10-15T18:36:37.748Z,28.41
2022-10-15T18:39:04.498Z,28.59
2022-10-15T18:41:33.647Z,28.66
2022-10-15T18:44:03.298Z,28.72
2022-10-15T18:46:33.923Z,28.53
2022-10-15T18:49:02.225Z,28.62
2022-10-15T18:51:31.244Z,28.56
2022-10-15T18:54:00.019Z,28.59
2022-10-15T18:56:26.839Z,28.76
2022-10-15T18:58:54.538Z,28.75
2022-10-15T19:01:36.522Z,28.75
2022-10-15T19:04:06.361Z,28.47
2022-10-15T19:06:39.757Z,28.40
2022-10-15T19:09:09.033Z,28.02
2022-10-15T19:11:36.508Z,28.29
2022-10-15T19:14:03.733Z,28.50
2022-10-15T19:16:30.516Z,28.86
2022-10-15T19:19:03.028Z,28.84
2022-10-15T19:21:29.676Z,29.09
2022-10-15T19:23:56.506Z,28.96
2022-10-15T19:26:23.345Z,29.18
2022-10-15T19:28:51.976Z,28.80
2022-10-15T19:31:27.946Z,29.00
2022-10-15T19:33:55.646Z,28.35
2022-10-15T19:36:24.286Z,28.34
2022-10-15T19:38:51.492Z,28.43
2022-10-15T19:41:19.006Z,28.29
2022-10-15T19:43:45.877Z,28.01
2022-10-15T19:46:12.464Z,28.57
2022-10-15T19:48:41.393Z,27.97
2022-10-15T19:51:08.337Z,28.07
2022-10-15T19:53:35.443Z,27.54
2022-10-15T19:56:08.157Z,27.38
2022-10-15T19:58:35.405Z,27.41
2022-10-15T20:01:02.844Z,27.66
2022-10-15T20:03:30.218Z,27.36
2022-10-15T20:06:00.465Z,27.79
2022-10-15T20:08:27.085Z,27.97
2022-10-15T20:10:53.710Z,28.13
2022-10-15T20:13:22.619Z,28.15
2022-10-15T20:15:51.643Z,28.37
2022-10-15T20:18:19.397Z,28.65
2022-10-15T20:20:46.513Z,28.56
2022-10-15T20:23:15.506Z,28.47
2022-10-15T20:25:42.826Z,28.58
2022-10-15T20:28:11.111Z,28.39
2022-10-15T20:30:38.850Z,28.43
2022-10-15T20:33:06.770Z,28.53
2022-10-15T20:35:35.014Z,28.37
2022-10-15T20:38:02.056Z,28.41
2022-10-15T20:40:29.133Z,28.45
2022-10-15T20:42:55.986Z,27.98
2022-10-15T20:45:23.379Z,28.16
2022-10-15T20:47:51.874Z,28.00
2022-10-15T20:50:24.637Z,27.71
2022-10-15T20:52:51.817Z,27.88
2022-10-15T20:55:18.853Z,28.17
2022-10-15T20:57:46.016Z,27.39
2022-10-15T21:00:13.564Z,27.81
2022-10-15T21:02:41.565Z,27.68
2022-10-15T21:05:09.431Z,27.54
2022-10-15T21:07:36.107Z,27.13
2022-10-15T21:10:02.874Z,27.04
2022-10-15T21:12:29.749Z,27.19
2022-10-15T21:14:57.084Z,27.08
2022-10-15T21:17:24.476Z,26.49
2022-10-15T21:19:52.979Z,27.54
2022-10-15T21:22:20.548Z,27.69
2022-10-15T21:24:47.621Z,27.38
2022-10-15T21:27:14.539Z,27.57
2022-10-15T21:29:42.717Z,27.75
2022-10-15T21:32:09.561Z,27.92
2022-10-15T21:34:36.193Z,27.41
2022-10-15T21:37:03.072Z,27.63
2022-10-15T21:39:29.793Z,27.85
2022-10-15T21:41:56.450Z,28.19
2022-10-15T21:44:23.027Z,28.07
2022-10-15T21:46:49.593Z,28.02
2022-10-15T21:49:16.139Z,28.10
2022-10-15T21:51:42.702Z,28.39
2022-10-15T21:54:09.472Z,28.52
2022-10-15T21:56:36.778Z,28.16
2022-10-15T21:59:04.413Z,27.98
2022-10-15T22:01:35.234Z,27.95
2022-10-15T22:04:04.647Z,27.80
2022-10-15T22:06:32.113Z,27.73
2022-10-15T22:08:59.781Z,27.68
2022-10-15T22:11:29.168Z,27.73
2022-10-15T22:13:58.233Z,27.83
2022-10-15T22:16:27.026Z,27.69
2022-10-15T22:18:55.054Z,27.63
2022-10-15T22:21:25.411Z,27.79
2022-10-15T22:23:59.755Z,28.10
2022-10-15T22:26:32.801Z,28.00
2022-10-15T22:29:01.995Z,27.61
2022-10-15T22:31:29.449Z,27.66
2022-10-15T22:33:58.400Z,27.46
2022-10-15T22:36:27.915Z,27.49
2022-10-15T22:41:30.454Z,27.14
2022-10-15T22:43:57.775Z,27.29
2022-10-15T22:46:25.059Z,27.24
2022-10-15T22:48:53.651Z,27.44
2022-10-15T22:51:21.342Z,27.18
2022-10-15T22:53:48.130Z,27.30
2022-10-15T22:56:18.082Z,26.80
2022-10-15T22:58:45.665Z,26.08
2022-10-15T23:01:14.073Z,26.38
2022-10-15T23:03:43.383Z,26.05
2022-10-15T23:06:10.817Z,26.18
2022-10-15T23:08:37.898Z,26.06
2022-10-15T23:11:19.222Z,26.10
2022-10-15T23:13:47.909Z,25.94
2022-10-15T23:16:17.834Z,26.09
2022-10-15T23:18:47.207Z,26.33
2022-10-15T23:21:17.074Z,26.47
2022-10-15T23:23:44.718Z,26.19
2022-10-15T23:26:13.711Z,26.41
2022-10-15T23:28:41.586Z,25.76
2022-10-15T23:31:15.223Z,25.84
2022-10-15T23:33:41.918Z,26.38
2022-10-15T23:36:09.467Z,26.25
2022-10-15T23:38:35.992Z,26.51
2022-10-15T23:41:07.547Z,26.63
2022-10-15T23:43:34.657Z,26.47
2022-10-15T23:46:01.301Z,26.50
2022-10-15T23:48:28.770Z,26.31
2022-10-15T23:51:00.890Z,26.56
2022-10-15T23:53:32.673Z,26.21
2022-10-15T23:56:01.773Z,26.40
2022-10-15T23:58:28.432Z,26.19
